Flight Track Log - Related Links

Times and Time Zones

All times are in EDT time to prevent confusion due to time zone crossing. See the ASQ4976 flight status page for this flight to view local times or setup timezone preferences in your user account.

Time Position Orientation Groundspeed Altitude Reporting Facility
EDT Latitude Longitude Course Direction KTS MPH feet Rate Location/Type
Thu 12:44:02 PM 42.7111 -73.8106 186° South 153 176 1,900  Level Boston Center
Thu 12:45:02 PM 42.7186 -73.8756 279° West 223 257 4,400 2,259 Climbing Boston Center
Thu 12:45:27 PM 42.7244 -73.8928 295° West 220 253 5,100 2,471 Climbing Boston Center
Thu 12:46:27 PM 42.7569 -73.9728 299° West 225 259 7,900 2,250 Climbing Boston Center
Thu 12:47:27 PM 42.7850 -74.0583 294° West 238 274 9,600 2,250 Climbing Boston Center
Thu 12:48:27 PM 42.7789 -74.1742 266° West 264 304 12,400 2,182 Climbing Boston Center
Thu 12:49:39 PM 42.7692 -74.2728 262° West 293 337 14,400 1,818 Climbing Boston Center
Thu 12:50:39 PM 42.6828 -74.3211 202° Southwest 274 315 16,400 1,950 Climbing Boston Center
Thu 12:51:39 PM 42.5858 -74.2619 156° South 298 343 18,300 1,850 Climbing Boston Center
Thu 12:52:39 PM 42.4972 -74.2056 155° Southeast 341 392 20,100 1,650 Climbing Boston Center
Thu 12:53:39 PM 42.4000 -74.1439 155° Southeast 364 419 21,600 1,500 Climbing Boston Center
Thu 12:54:39 PM 42.2922 -74.1128 168° South 387 445 23,100 1,550 Climbing Boston Center
Thu 12:55:39 PM 42.1817 -74.1128 180° South 393 452 24,700 1,650 Climbing Boston Center
Thu 12:56:39 PM 42.0692 -74.1125 180° South 398 458 26,400 1,800 Climbing Boston Center
Thu 12:57:39 PM 41.9644 -74.1489 194° South 403 464 28,300 1,750 Climbing Boston Center
Thu 12:58:39 PM 41.8617 -74.1961 199° South 397 457 29,900 1,300 Climbing Boston Center
Thu 12:59:39 PM 41.7631 -74.2381 198° South 390 449 30,900 728 Climbing Boston Center
Thu 01:02:05 PM 41.5072 -74.3500 198° South 411 473 32,400 609 Climbing New York Center
Thu 01:03:06 PM 41.3933 -74.3994 198° South 422 486 33,000 738 Climbing New York Center
Thu 01:04:07 PM 41.2603 -74.4528 197° South 451 519 33,900 857 Climbing New York Center
Thu 01:05:05 PM 41.1458 -74.5156 202° Southwest 451 519 34,700 800 Climbing New York Center
Thu 01:06:07 PM 41.0531 -74.6206 220° Southwest 442 509 35,500 650 Climbing New York Center
Thu 01:07:05 PM 40.9597 -74.7306 222° Southwest 448 516 36,000 305 Climbing New York Center
Thu 01:08:05 PM 40.8625 -74.8372 220° Southwest 448 516 36,100 300 Climbing New York Center
Thu 01:09:05 PM 40.7689 -74.9469 222° Southwest 454 522 36,600 496 Climbing New York Center
Thu 01:10:06 PM 40.6736 -75.0531 220° Southwest 454 522 37,100 496 Climbing New York Center
Thu 01:11:06 PM 40.5756 -75.1647 221° Southwest 454 522 37,600 446 Climbing New York Center
Thu 01:12:07 PM 40.4819 -75.2758 222° Southwest 454 522 38,000 202 Climbing New York Center
Thu 01:13:05 PM 40.3981 -75.3958 227° Southwest 454 522 38,000  Level New York Center
Thu 01:14:05 PM 40.3178 -75.5239 231° Southwest 454 522 38,000  Level New York Center
Thu 01:15:06 PM 40.2400 -75.6464 230° Southwest 454 522 38,000  Level New York Center
Thu 01:16:07 PM 40.1617 -75.7711 231° Southwest 454 522 38,000  Level New York Center
Thu 01:17:05 PM 40.0836 -75.8931 230° Southwest 454 522 38,000  Level New York Center
Thu 01:18:06 PM 40.0053 -76.0122 229° Southwest 454 522 38,000  Level New York Center
Thu 01:19:07 PM 39.9247 -76.1358 230° Southwest 454 522 38,000  Level New York Center
Thu 01:20:05 PM 39.8489 -76.2439 228° Southwest 460 529 38,000  Level New York Center
Thu 01:21:05 PM 39.7722 -76.3675 231° Southwest 460 529 38,000  Level New York Center
Thu 01:22:05 PM 39.6914 -76.4853 228° Southwest 455 524 38,000  Level New York Center
Thu 01:23:18 PM 39.5967 -76.6283 229° Southwest 438 504 38,000  Level Washington Center
Thu 01:24:18 PM 39.5164 -76.7508 230° Southwest 438 504 38,000  Level Washington Center
Thu 01:25:19 PM 39.4358 -76.8733 230° Southwest 443 510 38,000  Level Washington Center
Thu 01:26:19 PM 39.3575 -76.9928 230° Southwest 453 521 38,000  Level Washington Center
Thu 01:27:17 PM 39.2769 -77.1144 229° Southwest 458 527 38,000  Level Washington Center
Thu 01:28:17 PM 39.1961 -77.2361 229° Southwest 458 527 38,000  Level Washington Center
Thu 01:29:18 PM 39.1131 -77.3572 229° Southwest 463 533 38,000  Level Washington Center
Thu 01:30:19 PM 39.0214 -77.4911 229° Southwest 463 533 38,000  Level Washington Center
Thu 01:31:17 PM 38.9403 -77.6147 230° Southwest 458 527 38,000  Level Washington Center
Thu 01:32:17 PM 38.8653 -77.7219 228° Southwest 458 527 38,000  Level Washington Center
Thu 01:33:18 PM 38.7711 -77.8603 229° Southwest 458 527 38,000  Level Washington Center
Thu 01:34:18 PM 38.6894 -77.9800 229° Southwest 458 527 38,000  Level Washington Center
Thu 01:35:17 PM 38.6078 -78.0997 229° Southwest 451 519 38,000  Level Washington Center
Thu 01:36:17 PM 38.5242 -78.2189 228° Southwest 451 519 38,000  Level Washington Center
Thu 01:37:18 PM 38.4419 -78.3406 229° Southwest 451 519 38,000  Level Washington Center
Thu 01:38:19 PM 38.3600 -78.4594 229° Southwest 451 519 38,000  Level Washington Center
Thu 01:39:17 PM 38.2781 -78.5781 229° Southwest 451 519 38,000  Level Washington Center
Thu 01:40:18 PM 38.2064 -78.6833 229° Southwest 442 509 38,000  Level Washington Center
Thu 01:41:19 PM 38.1242 -78.7989 228° Southwest 442 509 38,000  Level Washington Center
Thu 01:42:17 PM 38.0417 -78.9167 228° Southwest 448 516 38,000 51 Level Washington Center
Thu 01:43:17 PM 37.9506 -79.0417 227° Southwest 453 521 38,100  Climbing Washington Center
Thu 01:44:18 PM 37.8678 -79.1589 228° Southwest 453 521 38,000 -49 Descending Washington Center
Thu 01:45:19 PM 37.7853 -79.2731 228° Southwest 453 521 38,000  Level Washington Center
Thu 01:46:17 PM 37.7089 -79.3769 227° Southwest 453 521 38,000  Level Washington Center
Thu 01:47:17 PM 37.6172 -79.5036 228° Southwest 458 527 38,000  Level Washington Center
Thu 01:48:18 PM 37.5408 -79.6097 228° Southwest 451 519 38,000  Level Washington Center
Thu 01:49:18 PM 37.4489 -79.7356 227° Southwest 456 525 38,000  Level Washington Center
Thu 01:50:19 PM 37.3611 -79.8536 227° Southwest 461 531 38,000  Level Washington Center
Thu 01:51:19 PM 37.2844 -79.9564 227° Southwest 454 522 38,000  Level Washington Center
Thu 01:53:22 PM 37.0953 -80.2086 227° Southwest 448 516 38,000  Level Atlanta Center
Thu 01:54:22 PM 37.0072 -80.3244 226° Southwest 453 521 38,000  Level Atlanta Center
Thu 01:55:22 PM 36.9311 -80.4294 228° Southwest 453 521 38,000  Level Atlanta Center
Thu 01:56:22 PM 36.8489 -80.5394 227° Southwest 453 521 38,000  Level Atlanta Center
Thu 01:57:22 PM 36.7683 -80.6442 226° Southwest 440 506 38,000  Level Atlanta Center
Thu 01:58:22 PM 36.6942 -80.7483 228° Southwest 408 470 38,000  Level Atlanta Center
Thu 01:59:22 PM 36.6156 -80.8522 227° Southwest 411 473 38,000  Level Atlanta Center
Thu 02:00:22 PM 36.5389 -80.9536 227° Southwest 404 465 38,000  Level Atlanta Center
Thu 02:01:22 PM 36.4581 -81.0600 227° Southwest 414 476 38,000  Level Atlanta Center
Thu 02:02:22 PM 36.3750 -81.1689 227° Southwest 414 476 38,000  Level Atlanta Center
Thu 02:03:22 PM 36.2942 -81.2797 228° Southwest 430 495 38,000  Level Atlanta Center
Thu 02:04:22 PM 36.2050 -81.3936 226° Southwest 435 501 38,000  Level Atlanta Center
Thu 02:05:22 PM 36.1197 -81.5069 227° Southwest 435 501 38,000  Level Atlanta Center
Thu 02:06:22 PM 36.0344 -81.6175 226° Southwest 435 501 38,000  Level Atlanta Center
Thu 02:07:22 PM 35.9489 -81.7250 226° Southwest 440 506 38,000  Level Atlanta Center
Thu 02:08:22 PM 35.8633 -81.8378 227° Southwest 440 506 38,000 -250 Level Atlanta Center
Thu 02:09:22 PM 35.7925 -81.9600 234° Southwest 440 506 37,500 -750 Descending Atlanta Center
Thu 02:10:22 PM 35.7342 -82.0919 241° Southwest 446 513 36,500 -750 Descending Atlanta Center
Thu 02:11:22 PM 35.6778 -82.2261 243° Southwest 440 506 36,000 -300 Descending Atlanta Center
Thu 02:12:22 PM 35.6233 -82.3553 243° Southwest 435 501 35,900 -550 Descending Atlanta Center
Thu 02:13:22 PM 35.5644 -82.4892 242° Southwest 440 506 34,900 -950 Descending Atlanta Center
Thu 02:14:22 PM 35.5014 -82.6231 240° Southwest 446 513 34,000 -450 Descending Atlanta Center
Thu 02:15:22 PM 35.4403 -82.7567 241° Southwest 451 519 34,000  Level Atlanta Center
Thu 02:16:22 PM 35.3433 -82.8625 222° Southwest 458 527 34,000 -400 Level Atlanta Center
Thu 02:17:22 PM 35.2400 -82.9631 218° Southwest 463 533 33,200 -900 Descending Atlanta Center
Thu 02:18:22 PM 35.1406 -83.0608 219° Southwest 470 541 32,200 -1,000 Descending Atlanta Center
Thu 02:19:22 PM 35.0369 -83.1586 218° Southwest 470 541 31,200 -1,000 Descending Atlanta Center
Thu 02:20:22 PM 34.9394 -83.2508 218° Southwest 470 541 30,200 -1,050 Descending Atlanta Center
Thu 02:21:22 PM 34.8378 -83.3478 218° Southwest 463 533 29,100 -1,800 Descending Atlanta Center
Thu 02:22:22 PM 34.7486 -83.4522 224° Southwest 463 533 26,600 -2,500 Descending Atlanta Center
Thu 02:24:22 PM 34.5806 -83.6578 225° Southwest 445 512 21,600 -2,467 Descending Atlanta Center
Thu 02:25:22 PM 34.4972 -83.7614 226° Southwest 439 505 19,200 -2,200 Descending Atlanta Center
Thu 02:26:22 PM 34.4014 -83.8322 211° Southwest 413 475 17,200 -2,150 Descending Atlanta Center
Thu 02:27:22 PM 34.3033 -83.8931 207° Southwest 402 463 14,900 -2,100 Descending Atlanta Center
Thu 02:28:22 PM 34.2136 -83.9508 208° Southwest 378 435 13,000 -1,100 Descending Atlanta Center
Thu 02:29:22 PM 34.1367 -84.0086 212° Southwest 343 395 12,700 -900 Descending Atlanta Center
Thu 02:30:22 PM 34.0614 -84.0714 215° Southwest 315 362 11,200 -1,600 Descending Atlanta Center
Thu 02:31:22 PM 33.9925 -84.1089 204° Southwest 296 341 9,500 -1,650 Descending Atlanta Center
Thu 02:31:42 PM 33.9667 -84.1167 194° South 289 333 9,000 -1,650 Descending Atlanta TRACON
Thu 02:32:42 PM 33.8833 -84.1167 180° South 271 312 7,300 -1,620 Descending Atlanta TRACON
Thu 02:33:22 PM 33.8403 -84.1239 188° South 272 313 6,300 -780 Descending Atlanta Center
Thu 02:34:22 PM 33.7692 -84.1339 187° South 265 305 6,000 -700 Descending Atlanta Center
Thu 02:35:22 PM 33.7067 -84.1536 195° South 243 280 4,900 -1,125 Descending Atlanta Center
Thu 02:35:42 PM 33.6833 -84.1667 205° Southwest 226 260 4,500 -730 Descending Atlanta TRACON
Thu 02:36:36 PM 33.6667 -84.2167 248° West 209 241 4,000 -684 Descending Atlanta TRACON
Thu 02:37:36 PM 33.6500 -84.2667 248° West 178 205 3,200 -850 Descending Atlanta TRACON
Thu 02:38:36 PM 33.6500 -84.3333 270° West 167 192 2,300 -800 Descending Atlanta TRACON
Thu 02:39:36 PM 33.6500 -84.3833 270° West 139 160 1,600 -700 Descending Atlanta TRACON
Thu 02:41:00 PM 33.6367 -84.4279 270° West  Level Estimated
Thu 02:48:00 PM 33.6367 -84.4279 103° East  Level Estimated
Thu 02:49:00 PM 33.6367 -84.4279 103° East  Level Estimated

Login

Don't have an account? Register now (free) for customized features, flight alerts, and more!